sensor_id;sensor_type;location;lat;lon;timestamp;pressure;altitude;pressure_sealevel;temperature;humidity
35419;BME280;21525;41.240;16.500;2023-05-24T00:01:18;101119.75;;;26.38;59.52
35419;BME280;21525;41.240;16.500;2023-05-24T00:03:51;101120.94;;;26.34;59.13
35419;BME280;21525;41.240;16.500;2023-05-24T00:06:18;101112.72;;;26.37;59.63
35419;BME280;21525;41.240;16.500;2023-05-24T00:08:44;101113.19;;;26.31;59.44
35419;BME280;21525;41.240;16.500;2023-05-24T00:11:09;101120.25;;;26.06;60.41
35419;BME280;21525;41.240;16.500;2023-05-24T00:13:36;101116.09;;;26.02;60.43
35419;BME280;21525;41.240;16.500;2023-05-24T00:16:02;101118.38;;;25.96;60.83
35419;BME280;21525;41.240;16.500;2023-05-24T00:18:28;101113.88;;;25.84;60.89
35419;BME280;21525;41.240;16.500;2023-05-24T00:20:57;101108.78;;;25.93;60.54
35419;BME280;21525;41.240;16.500;2023-05-24T00:23:23;101107.19;;;26.40;59.10
35419;BME280;21525;41.240;16.500;2023-05-24T00:25:50;101108.72;;;26.19;59.29
35419;BME280;21525;41.240;16.500;2023-05-24T00:28:16;101093.34;;;26.22;58.65
35419;BME280;21525;41.240;16.500;2023-05-24T00:30:42;101099.31;;;26.26;58.58
35419;BME280;21525;41.240;16.500;2023-05-24T00:33:08;101093.16;;;26.00;59.08
35419;BME280;21525;41.240;16.500;2023-05-24T00:35:33;101095.66;;;25.90;59.61
35419;BME280;21525;41.240;16.500;2023-05-24T00:37:59;101094.19;;;25.73;60.42
35419;BME280;21525;41.240;16.500;2023-05-24T00:40:25;101089.16;;;25.94;59.22
35419;BME280;21525;41.240;16.500;2023-05-24T00:42:51;101092.31;;;25.99;59.47
35419;BME280;21525;41.240;16.500;2023-05-24T00:45:17;101089.91;;;25.96;59.29
35419;BME280;21525;41.240;16.500;2023-05-24T00:47:43;101091.78;;;26.07;58.77
35419;BME280;21525;41.240;16.500;2023-05-24T00:50:09;101090.56;;;25.87;59.05
35419;BME280;21525;41.240;16.500;2023-05-24T00:52:37;101089.16;;;25.69;60.11
35419;BME280;21525;41.240;16.500;2023-05-24T00:55:04;101084.03;;;25.91;58.44
35419;BME280;21525;41.240;16.500;2023-05-24T00:57:31;101086.38;;;25.96;58.93
35419;BME280;21525;41.240;16.500;2023-05-24T00:59:57;101088.31;;;25.94;58.89
35419;BME280;21525;41.240;16.500;2023-05-24T01:02:24;101094.06;;;25.62;60.04
35419;BME280;21525;41.240;16.500;2023-05-24T01:04:50;101095.50;;;26.04;58.93
35419;BME280;21525;41.240;16.500;2023-05-24T01:07:40;101087.47;;;25.81;59.34
35419;BME280;21525;41.240;16.500;2023-05-24T01:10:21;101089.16;;;25.82;59.61
35419;BME280;21525;41.240;16.500;2023-05-24T01:12:56;101079.88;;;25.87;59.24
35419;BME280;21525;41.240;16.500;2023-05-24T01:15:52;101082.75;;;25.97;59.14
35419;BME280;21525;41.240;16.500;2023-05-24T01:18:25;101087.88;;;25.62;60.27
35419;BME280;21525;41.240;16.500;2023-05-24T01:21:05;101087.72;;;25.65;60.33
35419;BME280;21525;41.240;16.500;2023-05-24T01:29:18;101087.72;;;26.01;59.32
35419;BME280;21525;41.240;16.500;2023-05-24T01:31:45;101082.66;;;25.73;59.95
35419;BME280;21525;41.240;16.500;2023-05-24T01:34:11;101085.22;;;25.74;60.02
35419;BME280;21525;41.240;16.500;2023-05-24T01:36:36;101090.25;;;25.66;60.84
35419;BME280;21525;41.240;16.500;2023-05-24T01:39:02;101098.75;;;25.71;61.41
35419;BME280;21525;41.240;16.500;2023-05-24T01:41:42;101084.69;;;25.57;61.41
35419;BME280;21525;41.240;16.500;2023-05-24T01:44:26;101085.53;;;25.70;60.74
35419;BME280;21525;41.240;16.500;2023-05-24T01:47:06;101083.19;;;25.78;60.49
35419;BME280;21525;41.240;16.500;2023-05-24T01:49:41;101085.69;;;26.05;59.74
35419;BME280;21525;41.240;16.500;2023-05-24T01:52:14;101083.88;;;26.05;59.74
35419;BME280;21525;41.240;16.500;2023-05-24T01:54:43;101081.91;;;25.71;60.05
35419;BME280;21525;41.240;16.500;2023-05-24T01:57:10;101078.50;;;25.94;60.07
35419;BME280;21525;41.240;16.500;2023-05-24T01:59:39;101082.56;;;25.74;60.59
35419;BME280;21525;41.240;16.500;2023-05-24T02:02:06;101079.38;;;25.69;60.62
35419;BME280;21525;41.240;16.500;2023-05-24T02:04:32;101070.84;;;25.77;60.58
35419;BME280;21525;41.240;16.500;2023-05-24T02:06:59;101080.19;;;25.19;62.87
35419;BME280;21525;41.240;16.500;2023-05-24T02:09:24;101073.28;;;25.93;60.87
35419;BME280;21525;41.240;16.500;2023-05-24T02:11:50;101075.09;;;25.80;61.28
35419;BME280;21525;41.240;16.500;2023-05-24T02:14:16;101072.63;;;25.38;63.13
35419;BME280;21525;41.240;16.500;2023-05-24T02:16:45;101082.66;;;25.73;61.61
35419;BME280;21525;41.240;16.500;2023-05-24T02:19:12;101079.13;;;25.47;62.44
35419;BME280;21525;41.240;16.500;2023-05-24T02:21:39;101085.31;;;25.60;61.55
35419;BME280;21525;41.240;16.500;2023-05-24T02:24:05;101080.44;;;25.80;60.69
35419;BME280;21525;41.240;16.500;2023-05-24T02:26:32;101080.00;;;25.73;60.81
35419;BME280;21525;41.240;16.500;2023-05-24T02:28:58;101081.38;;;25.78;60.16
35419;BME280;21525;41.240;16.500;2023-05-24T02:31:24;101083.19;;;25.53;60.45
35419;BME280;21525;41.240;16.500;2023-05-24T02:33:53;101083.94;;;25.29;62.45
35419;BME280;21525;41.240;16.500;2023-05-24T02:36:19;101083.63;;;25.59;61.10
35419;BME280;21525;41.240;16.500;2023-05-24T02:38:49;101085.66;;;25.56;61.29
35419;BME280;21525;41.240;16.500;2023-05-24T02:41:14;101089.69;;;25.87;60.20
35419;BME280;21525;41.240;16.500;2023-05-24T02:43:44;101092.13;;;25.52;61.07
35419;BME280;21525;41.240;16.500;2023-05-24T02:46:10;101079.56;;;25.54;61.31
35419;BME280;21525;41.240;16.500;2023-05-24T02:48:35;101083.72;;;25.45;61.37
35419;BME280;21525;41.240;16.500;2023-05-24T02:51:01;101078.28;;;25.47;61.45
35419;BME280;21525;41.240;16.500;2023-05-24T02:53:30;101082.56;;;25.49;60.88
35419;BME280;21525;41.240;16.500;2023-05-24T02:55:56;101080.22;;;25.32;61.59
35419;BME280;21525;41.240;16.500;2023-05-24T02:58:22;101083.00;;;25.30;61.41
35419;BME280;21525;41.240;16.500;2023-05-24T03:00:49;101084.47;;;25.47;60.80
35419;BME280;21525;41.240;16.500;2023-05-24T03:03:17;101085.00;;;25.39;60.61
35419;BME280;21525;41.240;16.500;2023-05-24T03:05:44;101078.91;;;25.37;60.27
35419;BME280;21525;41.240;16.500;2023-05-24T03:08:11;101080.63;;;25.26;60.96
35419;BME280;21525;41.240;16.500;2023-05-24T03:10:37;101083.38;;;24.99;62.02
35419;BME280;21525;41.240;16.500;2023-05-24T03:13:05;101082.53;;;25.11;61.47
35419;BME280;21525;41.240;16.500;2023-05-24T03:15:31;101076.34;;;24.98;62.03
35419;BME280;21525;41.240;16.500;2023-05-24T03:17:57;101079.56;;;25.28;61.38
35419;BME280;21525;41.240;16.500;2023-05-24T03:20:23;101081.91;;;25.20;61.44
35419;BME280;21525;41.240;16.500;2023-05-24T03:22:50;101077.00;;;25.01;61.58
35419;BME280;21525;41.240;16.500;2023-05-24T03:25:15;101078.69;;;25.15;61.26
35419;BME280;21525;41.240;16.500;2023-05-24T03:27:41;101090.63;;;25.35;60.98
35419;BME280;21525;41.240;16.500;2023-05-24T03:30:07;101088.78;;;24.97;61.55
35419;BME280;21525;41.240;16.500;2023-05-24T03:32:40;101086.78;;;25.14;61.90
35419;BME280;21525;41.240;16.500;2023-05-24T03:35:06;101090.88;;;25.32;61.16
35419;BME280;21525;41.240;16.500;2023-05-24T03:37:32;101086.59;;;25.29;61.37
35419;BME280;21525;41.240;16.500;2023-05-24T03:39:59;101083.19;;;25.40;61.36
35419;BME280;21525;41.240;16.500;2023-05-24T03:42:43;101085.63;;;25.43;60.46
35419;BME280;21525;41.240;16.500;2023-05-24T03:45:10;101091.50;;;25.48;60.87
35419;BME280;21525;41.240;16.500;2023-05-24T03:47:37;101097.88;;;25.45;60.93
35419;BME280;21525;41.240;16.500;2023-05-24T03:50:03;101098.38;;;25.65;60.29
35419;BME280;21525;41.240;16.500;2023-05-24T03:52:29;101098.44;;;25.51;60.39
35419;BME280;21525;41.240;16.500;2023-05-24T03:54:54;101099.94;;;25.67;60.11
35419;BME280;21525;41.240;16.500;2023-05-24T03:57:20;101094.59;;;25.80;59.14
35419;BME280;21525;41.240;16.500;2023-05-24T03:59:46;101092.72;;;26.31;57.41
35419;BME280;21525;41.240;16.500;2023-05-24T04:02:12;101086.56;;;26.42;56.55
35419;BME280;21525;41.240;16.500;2023-05-24T04:04:38;101086.31;;;26.21;56.60
35419;BME280;21525;41.240;16.500;2023-05-24T04:07:04;101086.09;;;26.61;55.91
35419;BME280;21525;41.240;16.500;2023-05-24T04:09:30;101084.88;;;26.89;54.84
35419;BME280;21525;41.240;16.500;2023-05-24T04:11:56;101096.28;;;26.91;54.35
35419;BME280;21525;41.240;16.500;2023-05-24T04:14:21;101093.63;;;27.37;52.81
35419;BME280;21525;41.240;16.500;2023-05-24T04:16:47;101102.81;;;28.24;50.56
35419;BME280;21525;41.240;16.500;2023-05-24T04:19:13;101093.84;;;29.41;47.48
35419;BME280;21525;41.240;16.500;2023-05-24T04:21:39;101091.28;;;30.41;45.66
35419;BME280;21525;41.240;16.500;2023-05-24T04:24:05;101090.47;;;30.79;43.86
35419;BME280;21525;41.240;16.500;2023-05-24T04:26:31;101089.63;;;30.79;43.97
35419;BME280;21525;41.240;16.500;2023-05-24T04:28:58;101091.88;;;31.02;42.77
35419;BME280;21525;41.240;16.500;2023-05-24T04:31:24;101094.97;;;31.83;42.42
35419;BME280;21525;41.240;16.500;2023-05-24T04:33:56;101103.25;;;32.27;40.78
35419;BME280;21525;41.240;16.500;2023-05-24T04:36:23;101102.41;;;32.26;40.46
35419;BME280;21525;41.240;16.500;2023-05-24T04:38:49;101093.72;;;32.05;40.59
35419;BME280;21525;41.240;16.500;2023-05-24T04:41:18;101101.66;;;32.34;40.16
35419;BME280;21525;41.240;16.500;2023-05-24T04:43:44;101097.34;;;32.59;39.81
35419;BME280;21525;41.240;16.500;2023-05-24T04:46:11;101103.41;;;33.14;38.61
35419;BME280;21525;41.240;16.500;2023-05-24T04:48:37;101097.38;;;33.64;38.24
35419;BME280;21525;41.240;16.500;2023-05-24T04:51:03;101102.31;;;33.68;38.25
35419;BME280;21525;41.240;16.500;2023-05-24T04:53:28;101097.84;;;34.27;37.11
35419;BME280;21525;41.240;16.500;2023-05-24T04:55:54;101092.44;;;33.85;37.17
35419;BME280;21525;41.240;16.500;2023-05-24T04:58:20;101095.63;;;34.23;37.23
35419;BME280;21525;41.240;16.500;2023-05-24T05:00:46;101101.63;;;34.43;36.98
35419;BME280;21525;41.240;16.500;2023-05-24T05:03:12;101098.78;;;34.68;36.01
35419;BME280;21525;41.240;16.500;2023-05-24T05:05:38;101090.19;;;35.14;35.17
35419;BME280;21525;41.240;16.500;2023-05-24T05:08:04;101089.16;;;35.15;35.10
35419;BME280;21525;41.240;16.500;2023-05-24T05:10:30;101091.63;;;35.73;34.68
35419;BME280;21525;41.240;16.500;2023-05-24T05:12:56;101100.25;;;36.16;34.19
35419;BME280;21525;41.240;16.500;2023-05-24T05:15:22;101087.88;;;37.36;32.99
35419;BME280;21525;41.240;16.500;2023-05-24T05:17:48;101096.88;;;37.13;33.10
35419;BME280;21525;41.240;16.500;2023-05-24T05:20:14;101099.00;;;37.03;33.55
35419;BME280;21525;41.240;16.500;2023-05-24T05:22:49;101091.63;;;37.64;32.33
35419;BME280;21525;41.240;16.500;2023-05-24T05:25:15;101096.56;;;37.08;32.89
35419;BME280;21525;41.240;16.500;2023-05-24T05:27:41;101098.03;;;36.50;33.95
35419;BME280;21525;41.240;16.500;2023-05-24T05:30:07;101100.91;;;36.18;34.89
35419;BME280;21525;41.240;16.500;2023-05-24T05:32:33;101097.09;;;35.24;36.04
35419;BME280;21525;41.240;16.500;2023-05-24T05:34:59;101106.69;;;34.38;37.33
35419;BME280;21525;41.240;16.500;2023-05-24T05:37:25;101102.28;;;34.36;37.57
35419;BME280;21525;41.240;16.500;2023-05-24T05:39:52;101106.25;;;34.24;37.59
35419;BME280;21525;41.240;16.500;2023-05-24T05:42:18;101108.25;;;33.46;38.64
35419;BME280;21525;41.240;16.500;2023-05-24T05:44:43;101108.53;;;34.37;37.39
35419;BME280;21525;41.240;16.500;2023-05-24T05:47:09;101115.03;;;33.84;39.23
35419;BME280;21525;41.240;16.500;2023-05-24T05:49:35;101119.22;;;33.27;39.08
35419;BME280;21525;41.240;16.500;2023-05-24T05:52:02;101124.09;;;33.49;39.12
35419;BME280;21525;41.240;16.500;2023-05-24T05:54:27;101115.88;;;33.59;39.71
35419;BME280;21525;41.240;16.500;2023-05-24T05:56:53;101126.53;;;33.86;39.93
35419;BME280;21525;41.240;16.500;2023-05-24T05:59:19;101117.13;;;33.98;39.33
35419;BME280;21525;41.240;16.500;2023-05-24T06:01:45;101128.13;;;33.45;40.24
35419;BME280;21525;41.240;16.500;2023-05-24T06:04:13;101121.13;;;33.60;39.88
35419;BME280;21525;41.240;16.500;2023-05-24T06:06:39;101127.47;;;33.77;39.43
35419;BME280;21525;41.240;16.500;2023-05-24T06:09:06;101124.78;;;34.11;39.23
35419;BME280;21525;41.240;16.500;2023-05-24T06:11:32;101129.44;;;33.93;39.10
35419;BME280;21525;41.240;16.500;2023-05-24T06:13:58;101141.50;;;33.11;40.75
35419;BME280;21525;41.240;16.500;2023-05-24T06:16:24;101138.06;;;32.01;42.53
35419;BME280;21525;41.240;16.500;2023-05-24T06:18:50;101146.09;;;32.11;42.30
35419;BME280;21525;41.240;16.500;2023-05-24T06:21:16;101147.22;;;31.61;43.61
35419;BME280;21525;41.240;16.500;2023-05-24T06:23:42;101139.19;;;31.71;43.38
35419;BME280;21525;41.240;16.500;2023-05-24T06:26:08;101136.19;;;31.64;44.17
35419;BME280;21525;41.240;16.500;2023-05-24T06:28:35;101138.25;;;31.33;44.38
35419;BME280;21525;41.240;16.500;2023-05-24T06:31:02;101142.63;;;31.34;44.50
35419;BME280;21525;41.240;16.500;2023-05-24T06:33:28;101142.16;;;31.68;44.03
35419;BME280;21525;41.240;16.500;2023-05-24T06:35:54;101154.16;;;31.83;43.93
35419;BME280;21525;41.240;16.500;2023-05-24T06:38:20;101153.03;;;32.13;43.51
35419;BME280;21525;41.240;16.500;2023-05-24T06:40:46;101153.78;;;32.05;43.28
35419;BME280;21525;41.240;16.500;2023-05-24T06:43:11;101154.16;;;32.65;42.35
35419;BME280;21525;41.240;16.500;2023-05-24T06:45:39;101153.41;;;32.91;42.38
35419;BME280;21525;41.240;16.500;2023-05-24T06:48:05;101162.06;;;32.77;42.24
35419;BME280;21525;41.240;16.500;2023-05-24T06:50:31;101157.00;;;32.46;42.45
35419;BME280;21525;41.240;16.500;2023-05-24T06:52:57;101167.22;;;31.01;45.07
35419;BME280;21525;41.240;16.500;2023-05-24T06:55:22;101172.34;;;30.54;47.01
35419;BME280;21525;41.240;16.500;2023-05-24T06:57:48;101174.38;;;30.22;48.12
35419;BME280;21525;41.240;16.500;2023-05-24T07:00:14;101168.38;;;31.37;46.71
35419;BME280;21525;41.240;16.500;2023-05-24T07:02:40;101174.69;;;30.28;47.21
35419;BME280;21525;41.240;16.500;2023-05-24T07:05:07;101178.94;;;30.21;48.21
35419;BME280;21525;41.240;16.500;2023-05-24T07:07:40;101174.31;;;30.02;48.75
35419;BME280;21525;41.240;16.500;2023-05-24T07:10:08;101185.66;;;28.68;50.86
35419;BME280;21525;41.240;16.500;2023-05-24T07:12:35;101178.13;;;29.58;50.19
35419;BME280;21525;41.240;16.500;2023-05-24T07:15:01;101177.06;;;30.62;47.96
35419;BME280;21525;41.240;16.500;2023-05-24T07:17:27;101165.81;;;31.45;45.24
35419;BME280;21525;41.240;16.500;2023-05-24T07:19:53;101169.25;;;32.31;43.83
35419;BME280;21525;41.240;16.500;2023-05-24T07:22:18;101170.78;;;31.30;44.36
35419;BME280;21525;41.240;16.500;2023-05-24T07:24:45;101171.78;;;31.20;43.62
35419;BME280;21525;41.240;16.500;2023-05-24T07:27:10;101166.97;;;31.43;43.98
35419;BME280;21525;41.240;16.500;2023-05-24T07:29:36;101166.78;;;30.77;44.84
35419;BME280;21525;41.240;16.500;2023-05-24T07:32:02;101167.78;;;31.04;43.47
35419;BME280;21525;41.240;16.500;2023-05-24T07:34:28;101166.09;;;30.74;44.70
35419;BME280;21525;41.240;16.500;2023-05-24T07:36:55;101171.06;;;29.99;46.31
35419;BME280;21525;41.240;16.500;2023-05-24T07:39:23;101171.72;;;30.62;45.75
35419;BME280;21525;41.240;16.500;2023-05-24T07:41:50;101175.16;;;30.03;46.09
35419;BME280;21525;41.240;16.500;2023-05-24T07:44:15;101172.66;;;30.11;45.60
35419;BME280;21525;41.240;16.500;2023-05-24T07:46:41;101180.84;;;30.10;45.90
35419;BME280;21525;41.240;16.500;2023-05-24T07:49:07;101180.81;;;29.79;46.29
35419;BME280;21525;41.240;16.500;2023-05-24T07:51:33;101177.94;;;30.62;45.64
35419;BME280;21525;41.240;16.500;2023-05-24T07:53:58;101178.84;;;31.30;44.87
35419;BME280;21525;41.240;16.500;2023-05-24T07:56:24;101185.66;;;30.56;46.02
35419;BME280;21525;41.240;16.500;2023-05-24T07:58:50;101184.66;;;30.47;46.30
35419;BME280;21525;41.240;16.500;2023-05-24T08:01:16;101193.00;;;29.41;50.04
35419;BME280;21525;41.240;16.500;2023-05-24T08:03:45;101188.22;;;29.66;50.46
35419;BME280;21525;41.240;16.500;2023-05-24T08:06:11;101191.00;;;29.64;50.49
35419;BME280;21525;41.240;16.500;2023-05-24T08:08:38;101197.91;;;28.93;51.18
35419;BME280;21525;41.240;16.500;2023-05-24T08:11:05;101192.59;;;29.67;49.85
35419;BME280;21525;41.240;16.500;2023-05-24T08:13:32;101189.44;;;30.44;48.25
35419;BME280;21525;41.240;16.500;2023-05-24T08:15:58;101193.97;;;30.43;48.34
35419;BME280;21525;41.240;16.500;2023-05-24T08:18:24;101200.31;;;28.96;51.47
35419;BME280;21525;41.240;16.500;2023-05-24T08:20:50;101204.91;;;29.37;52.08
35419;BME280;21525;41.240;16.500;2023-05-24T08:23:16;101203.13;;;29.27;52.59
35419;BME280;21525;41.240;16.500;2023-05-24T08:25:42;101193.97;;;30.43;50.57
35419;BME280;21525;41.240;16.500;2023-05-24T08:28:08;101191.19;;;30.14;50.80
35419;BME280;21525;41.240;16.500;2023-05-24T08:30:35;101202.81;;;28.88;53.39
35419;BME280;21525;41.240;16.500;2023-05-24T08:33:01;101199.03;;;30.06;51.71
35419;BME280;21525;41.240;16.500;2023-05-24T08:35:27;101206.44;;;27.75;58.22
35419;BME280;21525;41.240;16.500;2023-05-24T08:37:53;101200.19;;;28.21;57.66
35419;BME280;21525;41.240;16.500;2023-05-24T08:40:19;101200.28;;;29.60;54.52
35419;BME280;21525;41.240;16.500;2023-05-24T08:42:46;101206.09;;;30.37;51.30
35419;BME280;21525;41.240;16.500;2023-05-24T08:45:14;101212.50;;;29.95;53.25
35419;BME280;21525;41.240;16.500;2023-05-24T08:47:40;101214.28;;;29.43;54.90
35419;BME280;21525;41.240;16.500;2023-05-24T08:50:07;101205.06;;;29.57;55.22
35419;BME280;21525;41.240;16.500;2023-05-24T08:52:33;101210.28;;;30.21;51.46
35419;BME280;21525;41.240;16.500;2023-05-24T08:55:00;101213.63;;;30.53;50.46
35419;BME280;21525;41.240;16.500;2023-05-24T08:57:27;101204.78;;;30.32;49.40
35419;BME280;21525;41.240;16.500;2023-05-24T08:59:52;101217.31;;;29.70;49.14
35419;BME280;21525;41.240;16.500;2023-05-24T09:02:22;101210.25;;;29.69;49.63
35419;BME280;21525;41.240;16.500;2023-05-24T09:04:50;101213.44;;;30.35;49.11
35419;BME280;21525;41.240;16.500;2023-05-24T09:07:19;101222.44;;;29.09;52.18
35419;BME280;21525;41.240;16.500;2023-05-24T09:10:11;101217.91;;;28.67;56.25
35419;BME280;21525;41.240;16.500;2023-05-24T09:12:39;101222.50;;;28.76;57.08
35419;BME280;21525;41.240;16.500;2023-05-24T09:15:09;101220.81;;;28.86;55.51
35419;BME280;21525;41.240;16.500;2023-05-24T09:17:35;101221.22;;;28.48;57.32
35419;BME280;21525;41.240;16.500;2023-05-24T09:20:01;101231.66;;;28.85;58.61
35419;BME280;21525;41.240;16.500;2023-05-24T09:22:31;101230.03;;;29.25;56.86
35419;BME280;21525;41.240;16.500;2023-05-24T09:25:01;101232.13;;;27.89;61.13
35419;BME280;21525;41.240;16.500;2023-05-24T09:27:28;101230.69;;;29.18;56.92
35419;BME280;21525;41.240;16.500;2023-05-24T09:29:56;101221.44;;;29.22;56.26
35419;BME280;21525;41.240;16.500;2023-05-24T09:32:22;101222.34;;;29.00;54.74
35419;BME280;21525;41.240;16.500;2023-05-24T09:34:52;101223.44;;;28.97;57.07
35419;BME280;21525;41.240;16.500;2023-05-24T09:37:20;101229.13;;;27.59;60.23
35419;BME280;21525;41.240;16.500;2023-05-24T09:39:48;101224.88;;;28.47;59.37
35419;BME280;21525;41.240;16.500;2023-05-24T09:42:18;101235.63;;;27.20;67.72
35419;BME280;21525;41.240;16.500;2023-05-24T09:44:47;101224.56;;;27.48;63.95
35419;BME280;21525;41.240;16.500;2023-05-24T09:47:13;101228.03;;;28.30;62.76
35419;BME280;21525;41.240;16.500;2023-05-24T09:49:40;101228.47;;;28.80;59.57
35419;BME280;21525;41.240;16.500;2023-05-24T09:52:06;101229.84;;;28.18;63.43
35419;BME280;21525;41.240;16.500;2023-05-24T09:54:32;101221.09;;;29.15;59.92
35419;BME280;21525;41.240;16.500;2023-05-24T09:57:01;101228.00;;;28.86;59.54
35419;BME280;21525;41.240;16.500;2023-05-24T09:59:32;101223.16;;;28.57;63.00
35419;BME280;21525;41.240;16.500;2023-05-24T10:02:17;101228.72;;;27.87;65.76
35419;BME280;21525;41.240;16.500;2023-05-24T10:04:46;101231.16;;;27.31;68.44
35419;BME280;21525;41.240;16.500;2023-05-24T10:07:12;101224.94;;;27.20;71.00
35419;BME280;21525;41.240;16.500;2023-05-24T10:09:39;101229.41;;;27.78;69.36
35419;BME280;21525;41.240;16.500;2023-05-24T10:15:14;101230.72;;;26.77;74.18
35419;BME280;21525;41.240;16.500;2023-05-24T10:17:40;101228.31;;;27.46;70.67
35419;BME280;21525;41.240;16.500;2023-05-24T10:20:06;101221.31;;;27.91;69.07
35419;BME280;21525;41.240;16.500;2023-05-24T10:22:36;101223.59;;;27.84;72.19
35419;BME280;21525;41.240;16.500;2023-05-24T10:25:05;101222.50;;;27.52;70.85
35419;BME280;21525;41.240;16.500;2023-05-24T10:27:34;101233.81;;;26.47;78.76
35419;BME280;21525;41.240;16.500;2023-05-24T10:30:09;101219.72;;;26.82;82.45
35419;BME280;21525;41.240;16.500;2023-05-24T10:32:38;101218.81;;;27.41;77.65
35419;BME280;21525;41.240;16.500;2023-05-24T10:35:05;101216.06;;;28.00;72.57
35419;BME280;21525;41.240;16.500;2023-05-24T10:37:32;101215.78;;;27.70;75.06
35419;BME280;21525;41.240;16.500;2023-05-24T10:39:59;101213.22;;;28.26;75.34
35419;BME280;21525;41.240;16.500;2023-05-24T10:42:25;101219.63;;;26.08;88.94
35419;BME280;21525;41.240;16.500;2023-05-24T10:44:51;101205.06;;;27.24;80.36
35419;BME280;21525;41.240;16.500;2023-05-24T10:47:19;101210.41;;;27.24;81.51
35419;BME280;21525;41.240;16.500;2023-05-24T10:49:51;101202.19;;;26.90;86.48
35419;BME280;21525;41.240;16.500;2023-05-24T10:52:17;101201.38;;;26.77;87.93
35419;BME280;21525;41.240;16.500;2023-05-24T10:55:03;101199.13;;;26.84;86.02
35419;BME280;21525;41.240;16.500;2023-05-24T10:57:30;101191.41;;;27.16;86.24
35419;BME280;21525;41.240;16.500;2023-05-24T11:03:06;101195.63;;;26.08;100.00
35419;BME280;21525;41.240;16.500;2023-05-24T11:08:11;101192.47;;;25.38;100.00
35419;BME280;21525;41.240;16.500;2023-05-24T11:10:37;101194.13;;;26.79;100.00
35419;BME280;21525;41.240;16.500;2023-05-24T11:13:06;101188.28;;;25.74;100.00
35419;BME280;21525;41.240;16.500;2023-05-24T11:15:33;101189.63;;;26.43;100.00
35419;BME280;21525;41.240;16.500;2023-05-24T11:20:34;101182.13;;;25.86;100.00
35419;BME280;21525;41.240;16.500;2023-05-24T11:23:07;101179.34;;;26.62;97.95
35419;BME280;21525;41.240;16.500;2023-05-24T11:25:38;101181.94;;;27.12;94.13
35419;BME280;21525;41.240;16.500;2023-05-24T11:28:08;101175.72;;;27.81;78.63
35419;BME280;21525;41.240;16.500;2023-05-24T11:30:45;101172.66;;;27.28;82.11
35419;BME280;21525;41.240;16.500;2023-05-24T11:33:19;101174.81;;;26.75;85.48
35419;BME280;21525;41.240;16.500;2023-05-24T11:35:49;101172.59;;;27.52;81.27
35419;BME280;21525;41.240;16.500;2023-05-24T11:38:16;101166.91;;;26.37;92.70
35419;BME280;21525;41.240;16.500;2023-05-24T11:40:43;101162.50;;;26.86;91.85
35419;BME280;21525;41.240;16.500;2023-05-24T11:43:16;101165.63;;;27.03;86.53
35419;BME280;21525;41.240;16.500;2023-05-24T11:45:44;101168.25;;;27.16;77.72
35419;BME280;21525;41.240;16.500;2023-05-24T11:48:10;101165.13;;;27.68;76.27
35419;BME280;21525;41.240;16.500;2023-05-24T11:50:38;101168.28;;;27.03;76.85
35419;BME280;21525;41.240;16.500;2023-05-24T11:53:08;101176.72;;;26.50;76.73
35419;BME280;21525;41.240;16.500;2023-05-24T11:55:34;101173.50;;;27.29;69.81
35419;BME280;21525;41.240;16.500;2023-05-24T11:58:03;101163.91;;;27.26;71.30
35419;BME280;21525;41.240;16.500;2023-05-24T12:00:30;101171.94;;;27.26;67.90
35419;BME280;21525;41.240;16.500;2023-05-24T12:02:57;101167.72;;;26.63;65.41
35419;BME280;21525;41.240;16.500;2023-05-24T12:05:26;101157.22;;;26.97;68.53
35419;BME280;21525;41.240;16.500;2023-05-24T12:08:04;101153.63;;;27.09;63.61
35419;BME280;21525;41.240;16.500;2023-05-24T12:10:34;101145.25;;;27.49;66.03
35419;BME280;21525;41.240;16.500;2023-05-24T12:13:05;101149.88;;;26.88;66.90
35419;BME280;21525;41.240;16.500;2023-05-24T12:15:31;101158.00;;;26.62;67.40
35419;BME280;21525;41.240;16.500;2023-05-24T12:17:58;101152.94;;;26.70;71.03
35419;BME280;21525;41.240;16.500;2023-05-24T12:20:26;101150.56;;;26.55;70.08
35419;BME280;21525;41.240;16.500;2023-05-24T12:22:53;101142.84;;;27.57;65.36
35419;BME280;21525;41.240;16.500;2023-05-24T12:25:21;101136.25;;;26.80;66.90
35419;BME280;21525;41.240;16.500;2023-05-24T12:27:54;101124.38;;;27.54;61.50
35419;BME280;21525;41.240;16.500;2023-05-24T12:30:24;101127.72;;;27.33;63.38
35419;BME280;21525;41.240;16.500;2023-05-24T12:32:50;101112.34;;;27.02;67.12
35419;BME280;21525;41.240;16.500;2023-05-24T12:35:21;101110.94;;;27.66;62.88
35419;BME280;21525;41.240;16.500;2023-05-24T12:37:47;101112.63;;;27.10;69.13
35419;BME280;21525;41.240;16.500;2023-05-24T12:40:18;101105.47;;;27.68;59.48
35419;BME280;21525;41.240;16.500;2023-05-24T12:42:55;101098.44;;;27.78;59.31
35419;BME280;21525;41.240;16.500;2023-05-24T12:45:22;101090.47;;;26.97;59.77
35419;BME280;21525;41.240;16.500;2023-05-24T12:50:17;101094.78;;;27.68;62.39
35419;BME280;21525;41.240;16.500;2023-05-24T12:52:43;101093.94;;;27.90;62.09
35419;BME280;21525;41.240;16.500;2023-05-24T12:55:14;101092.94;;;27.57;58.46
35419;BME280;21525;41.240;16.500;2023-05-24T12:57:41;101085.34;;;27.18;62.62
35419;BME280;21525;41.240;16.500;2023-05-24T13:00:11;101075.91;;;27.25;61.74
35419;BME280;21525;41.240;16.500;2023-05-24T13:02:38;101085.88;;;26.75;66.56